Terminal Aerodrome Forecast
Issued by NWS Paducah, KY

Home | Current Version | Previous Version | Graphics & Text | Print | Product List | Glossary On
Versions: 1 2 3 4 5 6 7 8 9 10 11 12 13 14 15 16 17 18 19 20 21 22 23 24 25 26 27
000
FTUS43 KPAH 171700
TAFPAH
TAF
KPAH 171721Z 1718/1818 VRB04KT P6SM SCT020 BKN250
      TEMPO 1718/1722 BKN020
     FM180000 03004KT P6SM SCT100 OVC250
     FM180300 03004KT P6SM SCT080 OVC100
     FM180600 VRB03KT P6SM SCT020 OVC080
     FM180900 VRB03KT 4SM -SNPLRA BR SCT005 OVC015
      TEMPO 1809/1812 2SM -FZRASNPL OVC005
     FM181200 VRB03KT 4SM BR OVC010 PROB30 1812/1814 2SM -FZRAPL=

USA.gov is the U.S. government's official web portal to all federal, state and local government web resources and services.